Time;durP1;ratioP1;P1;durP2;ratioP2;P2;SDS_P1;SDS_P2;PMS_P1;PMS_P2;Temp;Humidity;BMP_temperature;BMP_pressure;BME280_temperature;BME280_humidity;BME280_pressure;Samples;Min_cycle;Max_cycle;Signal;HPM_P1;HPM_P2
2022/07/26 00:00:12;;;;;;;;;;;21.70;99.90;;;;;;5062976;28;20281;-82
2022/07/26 00:02:38;;;;;;;;;;;21.60;99.90;;;;;;5061637;28;19958;-82
2022/07/26 00:05:04;;;;;;;;;;;21.60;99.90;;;;;;5061850;28;20011;-82
2022/07/26 00:07:29;;;;;;;;;;;21.60;99.90;;;;;;5059284;28;19917;-82
2022/07/26 00:09:55;;;;;;;;;;;21.60;99.90;;;;;;5060810;28;19992;-82
2022/07/26 00:12:21;;;;;;;;;;;21.60;99.90;;;;;;5059719;28;19918;-82
2022/07/26 00:14:46;;;;;;;;;;;21.50;99.90;;;;;;5060923;28;19932;-82
2022/07/26 00:17:12;;;;;;;;;;;21.50;99.90;;;;;;5061519;28;19909;-81
2022/07/26 00:19:37;;;;;;;;;;;21.30;99.90;;;;;;5058423;28;19909;-82
2022/07/26 00:24:47;;;;;;;;;;;21.10;99.90;;;;;;5060308;28;19930;-82
2022/07/26 00:27:12;;;;;;;;;;;21.00;99.90;;;;;;5059212;28;20019;-82
2022/07/26 00:29:38;;;;;;;;;;;21.00;99.90;;;;;;5060059;28;19922;-82
2022/07/26 00:32:04;;;;;;;;;;;21.00;99.90;;;;;;5059975;28;20322;-82
2022/07/26 00:34:29;;;;;;;;;;;21.00;99.90;;;;;;5060366;28;19916;-82
2022/07/26 00:36:54;;;;;;;;;;;20.90;99.90;;;;;;5057310;28;20431;-82
2022/07/26 00:39:20;;;;;;;;;;;20.90;99.90;;;;;;5060132;28;19913;-82
2022/07/26 00:44:11;;;;;;;;;;;20.80;99.90;;;;;;5052222;22;19957;-86
2022/07/26 00:46:39;;;;;;;;;;;20.70;99.90;;;;;;5014661;28;19909;-86
2022/07/26 00:49:05;;;;;;;;;;;20.70;99.90;;;;;;5015041;28;19998;-86
2022/07/26 00:51:30;;;;;;;;;;;20.70;99.90;;;;;;5014452;28;20412;-87
2022/07/26 00:53:56;;;;;;;;;;;20.80;99.90;;;;;;5014914;28;19916;-86
2022/07/26 00:56:21;;;;;;;;;;;20.70;99.90;;;;;;5014490;28;19910;-85
2022/07/26 00:58:47;;;;;;;;;;;20.70;99.90;;;;;;5014803;28;19948;-86
2022/07/26 01:01:12;;;;;;;;;;;20.70;99.90;;;;;;5032728;28;19925;-86
2022/07/26 01:03:38;;;;;;;;;;;20.70;99.90;;;;;;5032557;28;20326;-86
2022/07/26 01:06:04;;;;;;;;;;;20.60;99.90;;;;;;5032722;28;20299;-85
2022/07/26 01:08:29;;;;;;;;;;;20.60;99.90;;;;;;5014631;28;20356;-85
2022/07/26 01:10:55;;;;;;;;;;;20.60;99.90;;;;;;5014841;28;19920;-85
2022/07/26 01:13:21;;;;;;;;;;;20.60;99.90;;;;;;5014716;28;19956;-85
2022/07/26 01:15:46;;;;;;;;;;;20.60;99.90;;;;;;5017178;28;19923;-86
2022/07/26 01:18:12;;;;;;;;;;;20.50;99.90;;;;;;5019271;28;19917;-85
2022/07/26 01:20:38;;;;;;;;;;;20.50;99.90;;;;;;5036268;28;19909;-87
2022/07/26 01:23:03;;;;;;;;;;;20.40;99.90;;;;;;5018383;28;20288;-87
2022/07/26 01:25:30;;;;;;;;;;;20.40;99.90;;;;;;5018523;28;20572;-87
2022/07/26 01:27:55;;;;;;;;;;;20.40;99.90;;;;;;5018060;28;19909;-85
2022/07/26 01:30:21;;;;;;;;;;;20.30;99.90;;;;;;5018166;28;19936;-87
2022/07/26 01:32:46;;;;;;;;;;;20.30;99.90;;;;;;5018324;28;20277;-87
2022/07/26 01:35:12;;;;;;;;;;;20.20;99.90;;;;;;5035880;28;19909;-87
2022/07/26 01:37:37;;;;;;;;;;;20.20;99.90;;;;;;5017939;28;20412;-87
2022/07/26 01:40:03;;;;;;;;;;;20.10;99.90;;;;;;5017999;28;20392;-87
2022/07/26 01:42:28;;;;;;;;;;;20.10;99.90;;;;;;5018093;28;19920;-86
2022/07/26 01:44:54;;;;;;;;;;;20.10;99.90;;;;;;5018044;28;20356;-87
2022/07/26 01:47:19;;;;;;;;;;;20.00;99.90;;;;;;5017624;28;19909;-86
2022/07/26 01:49:45;;;;;;;;;;;20.00;99.90;;;;;;5017970;28;20288;-86
2022/07/26 01:52:10;;;;;;;;;;;19.90;99.90;;;;;;5017869;28;19910;-86
2022/07/26 01:54:36;;;;;;;;;;;19.90;99.90;;;;;;5017888;28;19909;-86
2022/07/26 01:57:01;;;;;;;;;;;19.90;99.90;;;;;;5017499;28;19910;-86
2022/07/26 01:59:27;;;;;;;;;;;19.80;99.90;;;;;;5017676;28;20377;-85
2022/07/26 02:01:52;;;;;;;;;;;19.80;99.90;;;;;;5017782;28;19913;-86
2022/07/26 02:07:02;;;;;;;;;;;19.80;99.90;;;;;;5035593;28;19916;-88
2022/07/26 02:09:27;;;;;;;;;;;19.70;99.90;;;;;;5017536;28;19909;-86
2022/07/26 02:11:53;;;;;;;;;;;19.50;99.90;;;;;;5017398;28;19912;-85
2022/07/26 02:14:18;;;;;;;;;;;19.50;99.90;;;;;;5017626;28;19916;-86
2022/07/26 02:16:44;;;;;;;;;;;19.60;99.90;;;;;;5017274;28;19917;-85
2022/07/26 02:19:09;;;;;;;;;;;19.60;99.90;;;;;;5035103;28;19909;-86
2022/07/26 02:21:35;;;;;;;;;;;19.40;99.90;;;;;;5017430;28;20005;-85
2022/07/26 02:24:00;;;;;;;;;;;19.50;99.90;;;;;;5017151;28;20408;-85
2022/07/26 02:26:26;;;;;;;;;;;19.60;99.90;;;;;;5033799;28;19949;-87
2022/07/26 02:28:51;;;;;;;;;;;19.70;99.90;;;;;;5017198;28;19916;-86
2022/07/26 02:31:17;;;;;;;;;;;19.70;99.90;;;;;;5017302;28;20426;-85
2022/07/26 02:33:42;;;;;;;;;;;19.70;99.90;;;;;;5017272;28;19909;-86
2022/07/26 02:36:08;;;;;;;;;;;19.60;99.90;;;;;;5034651;28;20004;-85
2022/07/26 02:38:33;;;;;;;;;;;19.50;99.90;;;;;;5034886;28;19959;-87
2022/07/26 02:40:59;;;;;;;;;;;19.50;99.90;;;;;;5035016;28;19909;-88
2022/07/26 02:43:25;;;;;;;;;;;19.50;99.90;;;;;;5017047;28;19917;-88
2022/07/26 02:45:51;;;;;;;;;;;19.50;99.90;;;;;;5034746;28;19909;-87
2022/07/26 02:48:16;;;;;;;;;;;19.50;99.90;;;;;;5017100;28;19909;-86
2022/07/26 02:50:42;;;;;;;;;;;19.50;99.90;;;;;;5016696;28;20284;-87
2022/07/26 02:53:07;;;;;;;;;;;19.50;99.90;;;;;;5016619;28;19953;-86
2022/07/26 02:55:33;;;;;;;;;;;19.40;99.90;;;;;;5016546;28;19913;-87
2022/07/26 02:57:58;;;;;;;;;;;19.40;99.90;;;;;;5034227;28;19909;-87
2022/07/26 03:00:25;;;;;;;;;;;19.40;99.90;;;;;;5016488;28;19932;-86
2022/07/26 03:02:50;;;;;;;;;;;19.40;99.90;;;;;;5016636;28;19910;-86
2022/07/26 03:05:16;;;;;;;;;;;19.30;99.90;;;;;;5016513;28;19909;-85
2022/07/26 03:07:41;;;;;;;;;;;19.20;99.90;;;;;;5016161;28;19913;-86
2022/07/26 03:10:07;;;;;;;;;;;19.30;99.90;;;;;;5016424;28;19953;-85
2022/07/26 03:12:32;;;;;;;;;;;19.30;99.90;;;;;;5016275;28;20425;-85
2022/07/26 03:14:58;;;;;;;;;;;19.30;99.90;;;;;;5016285;28;20416;-86
2022/07/26 03:17:23;;;;;;;;;;;19.20;99.90;;;;;;5015996;28;19913;-86
2022/07/26 03:19:49;;;;;;;;;;;19.20;99.90;;;;;;5016262;28;20280;-86
2022/07/26 03:22:14;;;;;;;;;;;19.20;99.90;;;;;;5016801;28;19985;-86
2022/07/26 03:24:40;;;;;;;;;;;19.30;99.90;;;;;;5017193;28;20368;-86
2022/07/26 03:27:05;;;;;;;;;;;19.40;99.90;;;;;;5016561;28;19924;-87
2022/07/26 03:29:31;;;;;;;;;;;19.50;99.90;;;;;;5034142;28;20043;-87
2022/07/26 03:31:56;;;;;;;;;;;19.50;99.90;;;;;;5016496;28;20284;-87
2022/07/26 03:34:22;;;;;;;;;;;19.60;99.90;;;;;;5016369;28;19917;-87
2022/07/26 03:36:48;;;;;;;;;;;19.60;99.90;;;;;;5015834;28;20396;-87
2022/07/26 03:39:13;;;;;;;;;;;19.80;99.90;;;;;;5015701;28;19948;-87
2022/07/26 03:41:39;;;;;;;;;;;19.80;99.90;;;;;;5015934;28;20265;-87
2022/07/26 03:44:04;;;;;;;;;;;19.80;99.90;;;;;;5015877;28;20004;-86
2022/07/26 03:46:30;;;;;;;;;;;19.80;99.90;;;;;;5015522;28;19916;-87
2022/07/26 03:48:55;;;;;;;;;;;19.80;99.90;;;;;;5033330;28;19909;-87
2022/07/26 03:51:21;;;;;;;;;;;19.90;99.90;;;;;;5015902;28;20002;-86
2022/07/26 03:53:46;;;;;;;;;;;19.90;99.90;;;;;;5015784;28;20258;-87
2022/07/26 03:59:14;;;;;;;;;;;19.90;99.90;;;;;;5033696;28;19915;-87
2022/07/26 04:01:40;;;;;;;;;;;19.90;99.90;;;;;;5015723;28;19909;-87
2022/07/26 04:04:10;;;;;;;;;;;20.00;99.90;;;;;;5015675;28;19909;-87
2022/07/26 04:06:35;;;;;;;;;;;20.00;99.90;;;;;;5015340;28;20403;-87
2022/07/26 04:09:02;;;;;;;;;;;19.90;99.90;;;;;;5033412;28;19941;-86
2022/07/26 04:11:27;;;;;;;;;;;19.90;99.90;;;;;;5015474;28;20008;-87
2022/07/26 04:13:53;;;;;;;;;;;20.00;99.90;;;;;;5015426;28;20386;-86
2022/07/26 04:16:18;;;;;;;;;;;20.10;99.90;;;;;;5015153;28;19913;-87
2022/07/26 04:18:44;;;;;;;;;;;20.00;99.90;;;;;;5033031;28;20376;-87
2022/07/26 04:21:09;;;;;;;;;;;20.20;99.90;;;;;;5032950;28;19981;-86
2022/07/26 04:23:35;;;;;;;;;;;20.20;99.90;;;;;;5015231;28;19909;-85
2022/07/26 04:26:00;;;;;;;;;;;20.20;99.90;;;;;;5015032;28;19917;-87
2022/07/26 04:28:27;;;;;;;;;;;20.30;99.90;;;;;;5015334;28;20281;-87
2022/07/26 04:30:56;;;;;;;;;;;20.20;99.90;;;;;;5015200;28;19917;-87
2022/07/26 04:33:22;;;;;;;;;;;20.20;99.90;;;;;;5015556;28;19915;-86
2022/07/26 04:35:47;;;;;;;;;;;20.30;99.90;;;;;;5032887;28;19909;-87
2022/07/26 04:38:13;;;;;;;;;;;20.30;99.90;;;;;;5015154;28;19963;-88
2022/07/26 04:40:38;;;;;;;;;;;20.40;99.90;;;;;;5015422;28;19909;-87
2022/07/26 04:43:04;;;;;;;;;;;20.30;99.90;;;;;;5015332;28;19923;-87
2022/07/26 04:45:29;;;;;;;;;;;20.30;99.90;;;;;;5015136;28;19913;-88
2022/07/26 04:47:55;;;;;;;;;;;20.30;99.90;;;;;;5015046;28;19909;-87
2022/07/26 04:50:21;;;;;;;;;;;20.30;99.90;;;;;;5017410;28;20020;-87
2022/07/26 04:52:47;;;;;;;;;;;20.30;99.90;;;;;;5019478;28;19909;-87
2022/07/26 04:55:13;;;;;;;;;;;20.20;99.90;;;;;;5019380;28;20347;-87
2022/07/26 04:57:39;;;;;;;;;;;20.20;99.90;;;;;;5019010;28;19909;-86
2022/07/26 05:00:06;;;;;;;;;;;20.30;99.90;;;;;;5019359;28;19909;-87
2022/07/26 05:02:31;;;;;;;;;;;20.20;99.90;;;;;;5019010;28;19974;-86
2022/07/26 05:04:57;;;;;;;;;;;20.40;99.90;;;;;;5018994;28;19909;-86
2022/07/26 05:07:22;;;;;;;;;;;20.40;99.90;;;;;;5018982;28;19932;-87
2022/07/26 05:09:48;;;;;;;;;;;20.40;99.90;;;;;;5019919;28;20423;-87
2022/07/26 05:12:13;;;;;;;;;;;20.40;99.90;;;;;;5019235;28;19949;-86
2022/07/26 05:14:39;;;;;;;;;;;20.30;99.90;;;;;;5019467;28;19913;-86
2022/07/26 05:17:05;;;;;;;;;;;20.30;99.90;;;;;;5036595;28;19909;-87
2022/07/26 05:19:30;;;;;;;;;;;20.40;99.90;;;;;;5019160;28;20016;-86
2022/07/26 05:21:56;;;;;;;;;;;20.50;99.90;;;;;;5019347;28;19960;-87
2022/07/26 05:24:21;;;;;;;;;;;20.50;99.90;;;;;;5019462;28;19909;-87
2022/07/26 05:26:47;;;;;;;;;;;20.50;99.90;;;;;;5021645;28;19909;-87
2022/07/26 05:29:12;;;;;;;;;;;20.60;99.90;;;;;;5021557;28;20015;-88
2022/07/26 05:31:38;;;;;;;;;;;20.70;99.90;;;;;;5020609;28;19952;-88
2022/07/26 05:34:04;;;;;;;;;;;20.60;99.90;;;;;;5021920;28;19910;-87
2022/07/26 05:36:29;;;;;;;;;;;20.60;99.90;;;;;;5020679;28;19916;-87
2022/07/26 05:38:55;;;;;;;;;;;20.50;99.90;;;;;;5019010;28;19909;-88
2022/07/26 05:41:20;;;;;;;;;;;20.40;99.90;;;;;;5036910;28;19909;-87
2022/07/26 05:43:46;;;;;;;;;;;20.50;99.90;;;;;;5018998;28;19924;-88
2022/07/26 05:46:12;;;;;;;;;;;20.50;99.90;;;;;;5019133;28;19945;-87
2022/07/26 05:48:37;;;;;;;;;;;20.60;99.90;;;;;;5019205;28;19967;-87
2022/07/26 05:51:03;;;;;;;;;;;20.60;99.90;;;;;;5018810;28;19923;-88
2022/07/26 05:53:29;;;;;;;;;;;20.60;99.90;;;;;;5018635;28;19975;-87
2022/07/26 05:55:54;;;;;;;;;;;20.70;99.90;;;;;;5018899;28;19918;-88
2022/07/26 05:58:20;;;;;;;;;;;20.70;99.90;;;;;;5019470;28;19909;-88
2022/07/26 06:00:45;;;;;;;;;;;20.70;99.90;;;;;;5019100;28;19909;-88
2022/07/26 06:03:23;;;;;;;;;;;20.70;99.90;;;;;;5020183;28;19910;-87
2022/07/26 06:05:50;;;;;;;;;;;20.50;99.90;;;;;;5020140;28;19909;-87
2022/07/26 06:08:16;;;;;;;;;;;20.50;99.90;;;;;;5037921;28;20399;-90
2022/07/26 06:10:41;;;;;;;;;;;20.50;99.90;;;;;;5018914;28;20020;-87
2022/07/26 06:13:07;;;;;;;;;;;20.40;99.90;;;;;;5018787;28;20003;-87
2022/07/26 06:15:32;;;;;;;;;;;20.40;99.90;;;;;;5019352;28;19917;-86
2022/07/26 06:17:57;;;;;;;;;;;20.40;99.90;;;;;;5018617;28;20395;-88
2022/07/26 06:20:23;;;;;;;;;;;20.40;99.90;;;;;;5018457;28;19917;-87
2022/07/26 06:22:50;;;;;;;;;;;20.50;99.90;;;;;;5018258;28;19909;-87
2022/07/26 06:25:16;;;;;;;;;;;20.60;99.90;;;;;;5018971;28;19909;-87
2022/07/26 06:27:41;;;;;;;;;;;20.70;99.90;;;;;;5019323;28;20459;-86
2022/07/26 06:30:07;;;;;;;;;;;20.70;99.90;;;;;;5019085;28;19942;-88
2022/07/26 06:32:33;;;;;;;;;;;20.70;99.90;;;;;;5017973;28;19913;-87
2022/07/26 06:34:58;;;;;;;;;;;20.70;99.90;;;;;;5038989;28;19932;-83
2022/07/26 06:37:24;;;;;;;;;;;20.70;99.90;;;;;;5019123;28;20320;-86
2022/07/26 06:39:49;;;;;;;;;;;20.80;99.90;;;;;;5017097;28;20002;-87
2022/07/26 06:42:14;;;;;;;;;;;20.80;99.90;;;;;;5017049;28;19916;-87
2022/07/26 06:44:40;;;;;;;;;;;20.90;99.90;;;;;;5038657;23;20328;-81
2022/07/26 06:47:05;;;;;;;;;;;20.80;99.90;;;;;;5002075;28;19921;-81
2022/07/26 06:49:31;;;;;;;;;;;20.70;99.90;;;;;;5026612;28;20027;-82
2022/07/26 06:51:56;;;;;;;;;;;20.80;99.90;;;;;;5016427;28;19985;-82
2022/07/26 06:54:22;;;;;;;;;;;20.90;99.90;;;;;;5034271;28;20372;-81
2022/07/26 06:56:48;;;;;;;;;;;20.80;99.90;;;;;;5016052;28;19917;-81
2022/07/26 06:59:13;;;;;;;;;;;20.90;99.90;;;;;;5034538;28;20005;-81
2022/07/26 07:01:39;;;;;;;;;;;21.00;99.90;;;;;;5034160;28;19909;-80
2022/07/26 07:04:04;;;;;;;;;;;21.00;99.90;;;;;;5031402;28;19913;-80
2022/07/26 07:06:30;;;;;;;;;;;21.00;99.90;;;;;;5016382;28;19913;-80
2022/07/26 07:08:55;;;;;;;;;;;21.10;99.90;;;;;;5034347;28;19913;-80
2022/07/26 07:11:20;;;;;;;;;;;21.20;99.90;;;;;;5033973;28;19913;-81
2022/07/26 07:13:46;;;;;;;;;;;21.30;99.90;;;;;;5033797;28;19909;-81
2022/07/26 07:16:11;;;;;;;;;;;21.30;99.90;;;;;;5034949;28;20334;-82
2022/07/26 07:18:37;;;;;;;;;;;21.30;99.90;;;;;;5034382;28;19909;-82
2022/07/26 07:21:02;;;;;;;;;;;21.30;99.90;;;;;;5037043;28;19909;-81
2022/07/26 07:23:28;;;;;;;;;;;21.30;99.90;;;;;;5025371;28;19996;-81
2022/07/26 07:25:53;;;;;;;;;;;21.10;99.90;;;;;;5015961;28;19914;-84
2022/07/26 07:28:19;;;;;;;;;;;21.10;99.90;;;;;;5015447;28;19910;-83
2022/07/26 07:30:46;;;;;;;;;;;21.10;99.90;;;;;;4997030;28;20450;-83
2022/07/26 07:33:12;;;;;;;;;;;21.00;99.90;;;;;;4996463;28;19953;-84
2022/07/26 07:35:39;;;;;;;;;;;21.00;99.90;;;;;;5012486;28;19909;-85
2022/07/26 07:38:04;;;;;;;;;;;21.00;99.90;;;;;;5012280;28;20323;-85
2022/07/26 07:40:30;;;;;;;;;;;21.00;99.90;;;;;;5012173;28;19909;-85
2022/07/26 07:42:56;;;;;;;;;;;21.10;99.90;;;;;;5012379;28;20377;-85
2022/07/26 07:45:21;;;;;;;;;;;21.20;99.90;;;;;;5011653;28;20012;-84
2022/07/26 07:47:47;;;;;;;;;;;21.00;99.90;;;;;;5012012;28;19952;-84
2022/07/26 07:50:12;;;;;;;;;;;21.00;99.90;;;;;;5012188;28;20365;-84
2022/07/26 07:52:38;;;;;;;;;;;20.90;99.90;;;;;;5012279;28;19913;-84
2022/07/26 07:55:03;;;;;;;;;;;20.90;99.90;;;;;;5013061;28;19910;-85
2022/07/26 07:57:29;;;;;;;;;;;20.90;99.90;;;;;;5011413;28;19917;-84
2022/07/26 07:59:54;;;;;;;;;;;20.90;99.90;;;;;;5013358;28;19921;-85
2022/07/26 08:02:20;;;;;;;;;;;20.90;99.90;;;;;;5012040;28;19909;-83
2022/07/26 08:04:45;;;;;;;;;;;20.90;99.90;;;;;;5014882;28;20369;-83
2022/07/26 08:07:11;;;;;;;;;;;21.00;99.90;;;;;;5013828;28;19935;-80
2022/07/26 08:09:36;;;;;;;;;;;21.10;99.90;;;;;;5013911;28;19910;-83
2022/07/26 08:12:02;;;;;;;;;;;21.00;99.90;;;;;;5012865;28;19910;-83
2022/07/26 08:14:27;;;;;;;;;;;20.90;99.90;;;;;;5012787;28;19909;-83
2022/07/26 08:16:53;;;;;;;;;;;20.90;99.90;;;;;;4996757;28;19956;-82
2022/07/26 08:19:18;;;;;;;;;;;20.80;99.90;;;;;;4996803;28;19943;-80
2022/07/26 08:21:45;;;;;;;;;;;21.00;99.90;;;;;;5032051;28;19909;-79
2022/07/26 08:24:10;;;;;;;;;;;21.00;99.90;;;;;;5033109;28;19909;-80
2022/07/26 08:26:36;;;;;;;;;;;21.20;99.90;;;;;;5015722;28;19916;-79
2022/07/26 08:29:01;;;;;;;;;;;21.40;99.90;;;;;;5033697;28;19992;-79
2022/07/26 08:31:27;;;;;;;;;;;21.60;99.90;;;;;;5024369;28;19983;-80
2022/07/26 08:33:53;;;;;;;;;;;21.80;99.90;;;;;;5013346;28;19910;-80
2022/07/26 08:36:18;;;;;;;;;;;22.00;99.90;;;;;;5012532;28;19910;-80
2022/07/26 08:38:44;;;;;;;;;;;22.00;99.90;;;;;;5032865;28;20715;-80
2022/07/26 08:41:09;;;;;;;;;;;22.20;99.90;;;;;;5032397;28;19916;-79
2022/07/26 08:43:35;;;;;;;;;;;22.10;99.90;;;;;;5032273;28;19932;-79
2022/07/26 08:46:03;;;;;;;;;;;22.20;99.90;;;;;;5031271;28;20024;-79
2022/07/26 08:48:28;;;;;;;;;;;22.60;99.90;;;;;;5029938;28;19967;-82
2022/07/26 08:50:54;;;;;;;;;;;22.80;99.90;;;;;;5032020;28;19917;-82
2022/07/26 08:53:21;;;;;;;;;;;22.90;99.90;;;;;;5029569;28;19936;-79
2022/07/26 08:55:46;;;;;;;;;;;23.70;99.90;;;;;;5031459;28;19909;-78
2022/07/26 08:58:12;;;;;;;;;;;24.40;99.90;;;;;;5030183;28;20387;-79
2022/07/26 09:00:37;;;;;;;;;;;25.20;99.90;;;;;;5031864;28;19964;-78
2022/07/26 09:03:03;;;;;;;;;;;25.80;99.90;;;;;;5031970;28;20431;-78
2022/07/26 09:05:30;;;;;;;;;;;25.80;99.90;;;;;;5031765;28;20295;-78
2022/07/26 09:07:56;;;;;;;;;;;25.40;99.90;;;;;;5031285;28;19963;-80
2022/07/26 09:10:22;;;;;;;;;;;25.00;99.90;;;;;;5031658;28;19971;-81
2022/07/26 09:12:54;;;;;;;;;;;24.30;99.90;;;;;;5031944;28;19909;-78
2022/07/26 09:15:21;;;;;;;;;;;23.60;99.90;;;;;;5031522;28;19932;-79
2022/07/26 09:17:48;;;;;;;;;;;23.20;99.90;;;;;;5013683;28;19909;-78
2022/07/26 09:20:15;;;;;;;;;;;22.90;99.90;;;;;;5028392;28;19913;-78
2022/07/26 09:22:59;;;;;;;;;;;22.70;99.90;;;;;;5028233;28;20030;-78
2022/07/26 09:25:26;;;;;;;;;;;22.70;99.90;;;;;;5002275;28;19917;-83
2022/07/26 09:27:51;;;;;;;;;;;22.60;99.90;;;;;;5027314;28;19909;-81
2022/07/26 09:30:17;;;;;;;;;;;22.70;99.90;;;;;;5027602;28;19913;-80
2022/07/26 09:32:58;;;;;;;;;;;22.80;99.90;;;;;;5031702;28;20299;-82
2022/07/26 09:35:23;;;;;;;;;;;24.00;99.90;;;;;;5012024;28;19920;-82
2022/07/26 09:37:49;;;;;;;;;;;25.30;99.90;;;;;;5022985;28;20372;-84
2022/07/26 09:40:15;;;;;;;;;;;25.90;99.90;;;;;;5017539;28;19959;-82
2022/07/26 09:42:55;;;;;;;;;;;26.00;99.90;;;;;;5035369;28;19920;-81
2022/07/26 09:45:21;;;;;;;;;;;26.70;99.90;;;;;;5017298;28;19928;-83
2022/07/26 09:47:46;;;;;;;;;;;26.70;99.90;;;;;;5033438;28;19909;-81
2022/07/26 09:50:15;;;;;;;;;;;27.20;99.90;;;;;;5035101;28;19920;-81
2022/07/26 09:53:00;;;;;;;;;;;28.20;99.90;;;;;;5017433;28;20542;-81
2022/07/26 09:55:26;;;;;;;;;;;30.10;99.90;;;;;;5035946;28;19963;-83
2022/07/26 09:57:51;;;;;;;;;;;29.70;99.90;;;;;;5035663;28;19909;-83
2022/07/26 10:00:17;;;;;;;;;;;28.70;99.90;;;;;;5035863;28;19909;-83
2022/07/26 10:02:42;;;;;;;;;;;28.90;99.90;;;;;;5018964;28;20331;-83
2022/07/26 10:05:08;;;;;;;;;;;29.30;99.90;;;;;;5018450;28;19909;-83
2022/07/26 10:07:34;;;;;;;;;;;29.60;99.90;;;;;;5036010;28;20384;-82
2022/07/26 10:10:02;;;;;;;;;;;29.20;99.90;;;;;;5035864;28;19913;-82
2022/07/26 10:12:28;;;;;;;;;;;28.80;99.90;;;;;;5034417;28;20020;-82
2022/07/26 10:14:55;;;;;;;;;;;29.40;99.90;;;;;;5036265;28;19955;-82
2022/07/26 10:17:30;;;;;;;;;;;31.00;99.90;;;;;;5035697;28;19916;-82
2022/07/26 10:20:06;;;;;;;;;;;31.60;97.80;;;;;;5034475;28;20320;-82
2022/07/26 10:22:33;;;;;;;;;;;31.50;96.00;;;;;;5018034;28;19952;-83
2022/07/26 10:25:17;;;;;;;;;;;32.00;94.60;;;;;;5017591;28;19913;-82
2022/07/26 10:27:43;;;;;;;;;;;32.30;93.20;;;;;;5034756;28;19909;-82
2022/07/26 10:30:15;;;;;;;;;;;31.40;91.80;;;;;;5017014;28;20403;-83
2022/07/26 10:32:43;;;;;;;;;;;30.20;93.10;;;;;;5034369;28;20021;-83
2022/07/26 10:35:27;;;;;;;;;;;30.40;94.40;;;;;;5035608;28;19971;-82
2022/07/26 10:38:02;;;;;;;;;;;31.10;93.90;;;;;;5034883;28;19917;-82
2022/07/26 10:40:31;;;;;;;;;;;31.00;90.90;;;;;;5033457;28;19948;-83
2022/07/26 10:43:06;;;;;;;;;;;31.40;88.50;;;;;;5035107;28;19909;-84
2022/07/26 10:45:32;;;;;;;;;;;32.30;87.40;;;;;;5035304;28;19920;-83
2022/07/26 10:48:11;;;;;;;;;;;31.90;87.10;;;;;;5034092;28;19962;-83
2022/07/26 10:50:37;;;;;;;;;;;33.20;82.80;;;;;;5017593;28;20368;-82
2022/07/26 10:53:03;;;;;;;;;;;33.20;80.20;;;;;;5035517;28;19959;-83
2022/07/26 10:55:28;;;;;;;;;;;31.70;78.30;;;;;;5034514;28;20280;-83
2022/07/26 10:57:54;;;;;;;;;;;30.50;80.90;;;;;;5034265;28;19996;-83
2022/07/26 11:00:21;;;;;;;;;;;29.60;81.50;;;;;;5033242;28;20601;-84
2022/07/26 11:02:47;;;;;;;;;;;29.00;85.00;;;;;;5016917;28;20238;-83
2022/07/26 11:05:14;;;;;;;;;;;28.70;86.50;;;;;;5034761;28;19917;-83
2022/07/26 11:08:09;;;;;;;;;;;28.50;89.80;;;;;;5033781;28;20324;-83
2022/07/26 11:10:42;;;;;;;;;;;28.60;90.80;;;;;;5031233;28;19917;-84
2022/07/26 11:13:14;;;;;;;;;;;28.50;91.80;;;;;;5033360;28;19909;-84
2022/07/26 11:15:44;;;;;;;;;;;28.50;91.00;;;;;;5015470;28;19916;-84
2022/07/26 11:18:11;;;;;;;;;;;27.90;91.60;;;;;;5015536;28;19909;-84
2022/07/26 11:20:37;;;;;;;;;;;27.40;92.50;;;;;;5015696;28;19952;-84
2022/07/26 11:23:03;;;;;;;;;;;27.10;91.70;;;;;;5015566;28;19919;-84
2022/07/26 11:25:29;;;;;;;;;;;26.90;93.30;;;;;;5032999;28;20003;-84
2022/07/26 11:28:01;;;;;;;;;;;26.60;95.10;;;;;;5015307;28;19967;-84
2022/07/26 11:30:27;;;;;;;;;;;26.40;94.60;;;;;;5015439;28;19951;-84
2022/07/26 11:32:54;;;;;;;;;;;25.90;94.40;;;;;;5015622;28;19909;-83
2022/07/26 11:35:19;;;;;;;;;;;25.50;94.00;;;;;;5033114;28;19909;-84
2022/07/26 11:38:11;;;;;;;;;;;25.40;94.10;;;;;;5032599;28;19913;-83
2022/07/26 11:40:40;;;;;;;;;;;25.20;95.90;;;;;;5012271;28;19959;-83
2022/07/26 11:43:05;;;;;;;;;;;25.00;96.20;;;;;;5015450;28;20316;-83
2022/07/26 11:45:31;;;;;;;;;;;24.90;96.70;;;;;;5015236;28;19931;-87
2022/07/26 11:47:57;;;;;;;;;;;24.80;97.80;;;;;;5015708;28;19955;-83
2022/07/26 11:50:23;;;;;;;;;;;24.70;99.90;;;;;;5031317;28;19942;-83
2022/07/26 11:52:48;;;;;;;;;;;24.70;99.90;;;;;;5015427;28;20324;-84
2022/07/26 11:55:14;;;;;;;;;;;24.70;99.30;;;;;;5032752;28;20012;-83
2022/07/26 11:57:39;;;;;;;;;;;24.70;99.80;;;;;;5032726;28;19909;-80
2022/07/26 12:00:05;;;;;;;;;;;24.70;99.90;;;;;;5047475;28;19920;-84
2022/07/26 12:02:30;;;;;;;;;;;24.90;99.90;;;;;;5020512;28;19939;-83
2022/07/26 12:05:15;;;;;;;;;;;25.00;99.90;;;;;;5032940;28;20441;-84
2022/07/26 12:08:01;;;;;;;;;;;25.20;99.90;;;;;;5014852;28;19956;-83
2022/07/26 12:10:27;;;;;;;;;;;25.10;99.90;;;;;;5014973;28;19920;-81
2022/07/26 12:13:05;;;;;;;;;;;25.30;99.90;;;;;;5034683;28;19917;-80
2022/07/26 12:15:42;;;;;;;;;;;25.30;99.90;;;;;;5041493;28;19924;-81
2022/07/26 12:18:07;;;;;;;;;;;25.10;99.90;;;;;;5021476;28;19916;-81
2022/07/26 12:20:33;;;;;;;;;;;25.00;99.90;;;;;;5032624;28;19925;-81
2022/07/26 12:23:04;;;;;;;;;;;24.80;99.90;;;;;;5032581;28;19909;-80
2022/07/26 12:25:30;;;;;;;;;;;24.90;99.90;;;;;;5034159;28;19924;-81
2022/07/26 12:27:55;;;;;;;;;;;24.90;99.90;;;;;;5034009;28;19909;-81
2022/07/26 12:30:21;;;;;;;;;;;24.90;99.90;;;;;;5032601;28;19925;-82
2022/07/26 12:32:47;;;;;;;;;;;25.00;99.90;;;;;;5014000;28;19909;-81
2022/07/26 12:35:14;;;;;;;;;;;25.20;99.90;;;;;;5013648;28;19959;-84
2022/07/26 12:37:46;;;;;;;;;;;25.30;99.90;;;;;;5014817;28;19910;-81
2022/07/26 12:40:14;;;;;;;;;;;25.30;99.90;;;;;;5035481;28;20380;-83
2022/07/26 12:42:41;;;;;;;;;;;25.60;99.90;;;;;;5017935;28;19932;-81
2022/07/26 12:45:08;;;;;;;;;;;25.70;99.90;;;;;;5017556;28;19917;-82
2022/07/26 12:47:35;;;;;;;;;;;26.10;99.90;;;;;;5032452;28;19973;-83
2022/07/26 12:50:02;;;;;;;;;;;26.50;99.90;;;;;;5064350;22;20394;-74
2022/07/26 12:52:28;;;;;;;;;;;26.50;99.90;;;;;;5057029;28;19912;-75
2022/07/26 12:54:53;;;;;;;;;;;26.40;99.90;;;;;;5053609;28;19916;-75
2022/07/26 12:57:20;;;;;;;;;;;26.30;99.90;;;;;;5052576;28;19908;-74
2022/07/26 12:59:47;;;;;;;;;;;26.20;99.90;;;;;;5053884;28;19908;-75
2022/07/26 13:02:12;;;;;;;;;;;25.80;99.90;;;;;;5053564;28;19996;-74
2022/07/26 13:04:38;;;;;;;;;;;25.90;99.90;;;;;;5054216;28;20003;-74
2022/07/26 13:07:04;;;;;;;;;;;25.80;99.90;;;;;;5038407;28;19919;-74
2022/07/26 13:09:31;;;;;;;;;;;26.00;99.90;;;;;;5052551;28;19913;-74
2022/07/26 13:11:57;;;;;;;;;;;26.00;99.90;;;;;;5062087;28;19917;-74
2022/07/26 13:14:22;;;;;;;;;;;26.10;99.90;;;;;;5057531;28;20018;-74
2022/07/26 13:16:48;;;;;;;;;;;26.30;99.90;;;;;;5057338;28;19998;-75
2022/07/26 13:19:14;;;;;;;;;;;26.50;99.90;;;;;;5057516;28;19909;-74
2022/07/26 13:21:40;;;;;;;;;;;26.60;99.90;;;;;;5057481;28;19908;-75
2022/07/26 13:24:05;;;;;;;;;;;26.70;99.90;;;;;;5057449;28;19919;-74
2022/07/26 13:26:31;;;;;;;;;;;27.30;99.90;;;;;;5056057;28;20298;-74
2022/07/26 13:28:57;;;;;;;;;;;27.60;99.90;;;;;;5051797;28;19908;-74
2022/07/26 13:31:23;;;;;;;;;;;27.80;99.90;;;;;;5048956;28;20000;-74
2022/07/26 13:33:48;;;;;;;;;;;27.80;99.90;;;;;;5057687;28;19912;-72
2022/07/26 13:36:14;;;;;;;;;;;27.70;99.90;;;;;;5054833;28;20417;-72
2022/07/26 13:38:41;;;;;;;;;;;27.90;99.90;;;;;;5053554;28;19909;-72
2022/07/26 13:41:07;;;;;;;;;;;28.00;99.90;;;;;;5065189;28;19909;-73
2022/07/26 13:43:34;;;;;;;;;;;28.00;99.90;;;;;;5057256;28;19909;-73
2022/07/26 13:45:59;;;;;;;;;;;28.10;99.90;;;;;;5056782;28;19914;-73
2022/07/26 13:48:25;;;;;;;;;;;28.10;99.90;;;;;;5056849;28;20003;-72
2022/07/26 13:50:52;;;;;;;;;;;28.00;99.90;;;;;;5050921;28;19917;-73
2022/07/26 13:53:17;;;;;;;;;;;27.90;99.90;;;;;;5054658;28;19915;-72
2022/07/26 13:55:43;;;;;;;;;;;27.60;99.90;;;;;;5052929;28;20003;-73
2022/07/26 13:58:09;;;;;;;;;;;27.50;99.90;;;;;;5065009;28;20321;-72
2022/07/26 14:00:34;;;;;;;;;;;27.30;99.90;;;;;;5037244;28;19917;-72
2022/07/26 14:03:00;;;;;;;;;;;27.10;99.90;;;;;;5053241;28;19952;-73
2022/07/26 14:05:26;;;;;;;;;;;26.90;99.90;;;;;;5053142;28;19932;-72
2022/07/26 14:07:52;;;;;;;;;;;26.70;99.90;;;;;;5053028;28;19909;-72
2022/07/26 14:10:18;;;;;;;;;;;26.70;99.90;;;;;;5053262;28;19924;-72
2022/07/26 14:12:43;;;;;;;;;;;26.40;99.90;;;;;;5053563;28;19944;-72
2022/07/26 14:15:09;;;;;;;;;;;26.10;99.90;;;;;;5053744;28;20360;-73
2022/07/26 14:17:35;;;;;;;;;;;26.00;99.90;;;;;;5053424;28;19909;-72
2022/07/26 14:20:01;;;;;;;;;;;25.60;99.90;;;;;;5053011;28;20007;-73
2022/07/26 14:22:26;;;;;;;;;;;25.60;99.90;;;;;;5051632;28;19913;-72